sensor_id;sensor_type;location;lat;lon;timestamp;P1;durP1;ratioP1;P2;durP2;ratioP2
19223;SDS011;9746;47.180;9.776;2023-06-14T04:29:59;0.30;;;0.30;;
19223;SDS011;9746;47.180;9.776;2023-06-14T04:32:28;0.20;;;0.20;;
19223;SDS011;9746;47.180;9.776;2023-06-14T04:34:59;0.20;;;0.20;;
19223;SDS011;9746;47.180;9.776;2023-06-14T04:37:28;0.30;;;0.30;;
19223;SDS011;9746;47.180;9.776;2023-06-14T04:42:42;0.20;;;0.20;;
19223;SDS011;9746;47.180;9.776;2023-06-14T04:45:11;0.20;;;0.20;;
19223;SDS011;9746;47.180;9.776;2023-06-14T04:47:40;0.20;;;0.20;;
19223;SDS011;9746;47.180;9.776;2023-06-14T04:50:11;0.25;;;0.25;;
19223;SDS011;9746;47.180;9.776;2023-06-14T04:52:38;0.30;;;0.30;;
19223;SDS011;9746;47.180;9.776;2023-06-14T04:55:07;0.20;;;0.20;;
19223;SDS011;9746;47.180;9.776;2023-06-14T04:57:35;0.20;;;0.20;;
19223;SDS011;9746;47.180;9.776;2023-06-14T05:00:05;0.20;;;0.20;;
19223;SDS011;9746;47.180;9.776;2023-06-14T05:02:38;0.20;;;0.20;;
19223;SDS011;9746;47.180;9.776;2023-06-14T05:05:06;0.20;;;0.20;;
19223;SDS011;9746;47.180;9.776;2023-06-14T05:07:34;0.20;;;0.20;;
19223;SDS011;9746;47.180;9.776;2023-06-14T05:10:14;0.20;;;0.20;;
19223;SDS011;9746;47.180;9.776;2023-06-14T05:12:41;0.20;;;0.20;;
19223;SDS011;9746;47.180;9.776;2023-06-14T05:15:21;0.20;;;0.20;;
19223;SDS011;9746;47.180;9.776;2023-06-14T05:17:54;0.20;;;0.20;;
19223;SDS011;9746;47.180;9.776;2023-06-14T05:20:23;0.20;;;0.20;;
19223;SDS011;9746;47.180;9.776;2023-06-14T05:22:52;0.30;;;0.30;;
19223;SDS011;9746;47.180;9.776;2023-06-14T05:25:24;0.20;;;0.20;;
19223;SDS011;9746;47.180;9.776;2023-06-14T05:27:53;0.20;;;0.20;;
19223;SDS011;9746;47.180;9.776;2023-06-14T05:30:20;0.20;;;0.20;;
19223;SDS011;9746;47.180;9.776;2023-06-14T05:32:48;0.20;;;0.20;;
19223;SDS011;9746;47.180;9.776;2023-06-14T05:35:20;0.20;;;0.20;;
19223;SDS011;9746;47.180;9.776;2023-06-14T05:37:48;0.20;;;0.20;;
19223;SDS011;9746;47.180;9.776;2023-06-14T05:40:18;0.20;;;0.20;;
19223;SDS011;9746;47.180;9.776;2023-06-14T05:42:47;0.20;;;0.20;;
19223;SDS011;9746;47.180;9.776;2023-06-14T05:45:15;0.30;;;0.30;;
19223;SDS011;9746;47.180;9.776;2023-06-14T05:47:43;0.20;;;0.20;;
19223;SDS011;9746;47.180;9.776;2023-06-14T05:50:10;0.10;;;0.10;;
19223;SDS011;9746;47.180;9.776;2023-06-14T05:52:39;0.20;;;0.20;;
19223;SDS011;9746;47.180;9.776;2023-06-14T05:55:07;0.20;;;0.20;;
19223;SDS011;9746;47.180;9.776;2023-06-14T05:57:37;0.20;;;0.20;;
19223;SDS011;9746;47.180;9.776;2023-06-14T06:00:05;0.20;;;0.20;;
19223;SDS011;9746;47.180;9.776;2023-06-14T06:02:40;0.10;;;0.10;;
19223;SDS011;9746;47.180;9.776;2023-06-14T06:05:08;0.20;;;0.20;;
19223;SDS011;9746;47.180;9.776;2023-06-14T06:07:35;0.20;;;0.20;;
19223;SDS011;9746;47.180;9.776;2023-06-14T06:10:07;0.20;;;0.20;;
19223;SDS011;9746;47.180;9.776;2023-06-14T06:12:35;0.20;;;0.20;;
19223;SDS011;9746;47.180;9.776;2023-06-14T06:15:05;0.20;;;0.20;;
19223;SDS011;9746;47.180;9.776;2023-06-14T06:17:33;0.20;;;0.20;;
19223;SDS011;9746;47.180;9.776;2023-06-14T06:20:02;0.13;;;0.13;;
19223;SDS011;9746;47.180;9.776;2023-06-14T06:22:30;0.10;;;0.10;;
19223;SDS011;9746;47.180;9.776;2023-06-14T06:24:58;0.10;;;0.10;;
19223;SDS011;9746;47.180;9.776;2023-06-14T06:27:27;0.20;;;0.20;;
19223;SDS011;9746;47.180;9.776;2023-06-14T06:29:54;0.15;;;0.15;;
19223;SDS011;9746;47.180;9.776;2023-06-14T06:32:22;0.10;;;0.10;;
19223;SDS011;9746;47.180;9.776;2023-06-14T06:34:51;0.10;;;0.10;;
19223;SDS011;9746;47.180;9.776;2023-06-14T06:37:19;0.10;;;0.10;;
19223;SDS011;9746;47.180;9.776;2023-06-14T06:39:46;0.10;;;0.10;;
19223;SDS011;9746;47.180;9.776;2023-06-14T06:42:14;0.10;;;0.10;;
19223;SDS011;9746;47.180;9.776;2023-06-14T06:44:43;0.15;;;0.15;;
19223;SDS011;9746;47.180;9.776;2023-06-14T06:47:10;0.10;;;0.10;;
19223;SDS011;9746;47.180;9.776;2023-06-14T06:49:37;0.10;;;0.10;;
19223;SDS011;9746;47.180;9.776;2023-06-14T06:52:05;0.10;;;0.10;;
19223;SDS011;9746;47.180;9.776;2023-06-14T06:54:35;0.10;;;0.10;;
19223;SDS011;9746;47.180;9.776;2023-06-14T06:57:02;0.10;;;0.10;;
19223;SDS011;9746;47.180;9.776;2023-06-14T06:59:33;0.10;;;0.10;;
19223;SDS011;9746;47.180;9.776;2023-06-14T07:02:02;0.10;;;0.10;;
19223;SDS011;9746;47.180;9.776;2023-06-14T07:07:07;0.10;;;0.10;;
19223;SDS011;9746;47.180;9.776;2023-06-14T07:09:36;0.10;;;0.10;;
19223;SDS011;9746;47.180;9.776;2023-06-14T07:12:04;0.10;;;0.10;;
19223;SDS011;9746;47.180;9.776;2023-06-14T07:14:39;0.10;;;0.10;;
19223;SDS011;9746;47.180;9.776;2023-06-14T07:17:07;0.10;;;0.10;;
19223;SDS011;9746;47.180;9.776;2023-06-14T07:19:35;0.10;;;0.10;;
19223;SDS011;9746;47.180;9.776;2023-06-14T07:22:02;0.10;;;0.10;;
19223;SDS011;9746;47.180;9.776;2023-06-14T07:24:32;0.10;;;0.10;;
19223;SDS011;9746;47.180;9.776;2023-06-14T07:27:01;0.00;;;0.00;;
19223;SDS011;9746;47.180;9.776;2023-06-14T07:29:31;0.10;;;0.10;;
19223;SDS011;9746;47.180;9.776;2023-06-14T07:31:58;0.10;;;0.10;;
19223;SDS011;9746;47.180;9.776;2023-06-14T07:34:27;0.10;;;0.10;;
19223;SDS011;9746;47.180;9.776;2023-06-14T07:36:55;0.10;;;0.10;;
19223;SDS011;9746;47.180;9.776;2023-06-14T07:39:23;0.10;;;0.10;;
19223;SDS011;9746;47.180;9.776;2023-06-14T07:41:50;0.10;;;0.10;;
19223;SDS011;9746;47.180;9.776;2023-06-14T07:44:19;0.00;;;0.00;;
19223;SDS011;9746;47.180;9.776;2023-06-14T07:46:46;0.10;;;0.10;;
19223;SDS011;9746;47.180;9.776;2023-06-14T07:49:31;0.10;;;0.10;;
19223;SDS011;9746;47.180;9.776;2023-06-14T07:51:58;0.10;;;0.10;;
19223;SDS011;9746;47.180;9.776;2023-06-14T07:54:26;0.10;;;0.10;;
19223;SDS011;9746;47.180;9.776;2023-06-14T07:56:54;0.10;;;0.10;;
19223;SDS011;9746;47.180;9.776;2023-06-14T07:59:23;0.10;;;0.10;;
19223;SDS011;9746;47.180;9.776;2023-06-14T08:01:50;0.10;;;0.10;;
19223;SDS011;9746;47.180;9.776;2023-06-14T08:04:24;0.10;;;0.10;;
19223;SDS011;9746;47.180;9.776;2023-06-14T08:06:52;0.10;;;0.10;;
19223;SDS011;9746;47.180;9.776;2023-06-14T08:11:59;0.10;;;0.10;;
19223;SDS011;9746;47.180;9.776;2023-06-14T08:14:27;0.10;;;0.10;;
19223;SDS011;9746;47.180;9.776;2023-06-14T08:16:54;0.10;;;0.10;;
19223;SDS011;9746;47.180;9.776;2023-06-14T08:19:22;0.10;;;0.10;;
19223;SDS011;9746;47.180;9.776;2023-06-14T08:21:49;0.10;;;0.10;;
19223;SDS011;9746;47.180;9.776;2023-06-14T08:24:22;0.10;;;0.10;;
19223;SDS011;9746;47.180;9.776;2023-06-14T08:26:52;0.10;;;0.10;;
19223;SDS011;9746;47.180;9.776;2023-06-14T08:29:19;0.10;;;0.10;;
19223;SDS011;9746;47.180;9.776;2023-06-14T08:31:46;0.10;;;0.10;;
19223;SDS011;9746;47.180;9.776;2023-06-14T08:34:14;0.05;;;0.05;;
19223;SDS011;9746;47.180;9.776;2023-06-14T08:36:41;0.10;;;0.10;;
19223;SDS011;9746;47.180;9.776;2023-06-14T08:39:08;0.10;;;0.10;;
19223;SDS011;9746;47.180;9.776;2023-06-14T08:41:38;0.10;;;0.10;;
19223;SDS011;9746;47.180;9.776;2023-06-14T08:44:05;0.10;;;0.10;;
19223;SDS011;9746;47.180;9.776;2023-06-14T08:46:34;0.10;;;0.10;;
19223;SDS011;9746;47.180;9.776;2023-06-14T08:49:03;0.10;;;0.10;;
19223;SDS011;9746;47.180;9.776;2023-06-14T08:51:32;0.10;;;0.10;;
19223;SDS011;9746;47.180;9.776;2023-06-14T08:54:02;0.10;;;0.10;;
19223;SDS011;9746;47.180;9.776;2023-06-14T08:56:30;0.10;;;0.10;;
19223;SDS011;9746;47.180;9.776;2023-06-14T08:59:00;0.10;;;0.10;;
19223;SDS011;9746;47.180;9.776;2023-06-14T09:04:00;0.10;;;0.10;;
19223;SDS011;9746;47.180;9.776;2023-06-14T09:06:30;0.10;;;0.10;;
19223;SDS011;9746;47.180;9.776;2023-06-14T09:08:58;0.10;;;0.10;;
19223;SDS011;9746;47.180;9.776;2023-06-14T09:11:28;0.10;;;0.10;;
19223;SDS011;9746;47.180;9.776;2023-06-14T09:13:56;0.10;;;0.10;;
19223;SDS011;9746;47.180;9.776;2023-06-14T09:16:26;0.10;;;0.10;;
19223;SDS011;9746;47.180;9.776;2023-06-14T09:18:53;0.10;;;0.10;;
19223;SDS011;9746;47.180;9.776;2023-06-14T09:21:23;0.10;;;0.10;;
19223;SDS011;9746;47.180;9.776;2023-06-14T09:23:51;0.10;;;0.10;;
19223;SDS011;9746;47.180;9.776;2023-06-14T09:26:19;0.10;;;0.10;;
19223;SDS011;9746;47.180;9.776;2023-06-14T09:28:48;0.10;;;0.10;;
19223;SDS011;9746;47.180;9.776;2023-06-14T09:33:50;0.10;;;0.10;;
19223;SDS011;9746;47.180;9.776;2023-06-14T09:38:51;0.08;;;0.08;;
19223;SDS011;9746;47.180;9.776;2023-06-14T09:43:57;0.10;;;0.10;;
19223;SDS011;9746;47.180;9.776;2023-06-14T09:46:27;0.05;;;0.05;;
19223;SDS011;9746;47.180;9.776;2023-06-14T09:48:56;0.10;;;0.10;;
19223;SDS011;9746;47.180;9.776;2023-06-14T09:51:26;0.00;;;0.00;;
19223;SDS011;9746;47.180;9.776;2023-06-14T09:53:57;0.10;;;0.10;;
19223;SDS011;9746;47.180;9.776;2023-06-14T09:56:28;0.00;;;0.00;;
19223;SDS011;9746;47.180;9.776;2023-06-14T09:58:57;0.00;;;0.00;;
19223;SDS011;9746;47.180;9.776;2023-06-14T10:01:29;0.10;;;0.10;;
19223;SDS011;9746;47.180;9.776;2023-06-14T10:04:00;0.10;;;0.10;;
19223;SDS011;9746;47.180;9.776;2023-06-14T10:06:30;0.00;;;0.00;;
19223;SDS011;9746;47.180;9.776;2023-06-14T10:08:59;0.00;;;0.00;;
19223;SDS011;9746;47.180;9.776;2023-06-14T10:11:26;0.00;;;0.00;;
19223;SDS011;9746;47.180;9.776;2023-06-14T10:13:54;0.00;;;0.00;;
19223;SDS011;9746;47.180;9.776;2023-06-14T10:16:23;0.10;;;0.10;;
19223;SDS011;9746;47.180;9.776;2023-06-14T10:19:01;0.00;;;0.00;;
19223;SDS011;9746;47.180;9.776;2023-06-14T10:24:10;0.10;;;0.10;;
19223;SDS011;9746;47.180;9.776;2023-06-14T10:26:50;0.10;;;0.10;;
19223;SDS011;9746;47.180;9.776;2023-06-14T10:29:24;0.10;;;0.10;;
19223;SDS011;9746;47.180;9.776;2023-06-14T10:31:57;0.00;;;0.00;;
19223;SDS011;9746;47.180;9.776;2023-06-14T10:34:30;0.00;;;0.00;;
19223;SDS011;9746;47.180;9.776;2023-06-14T10:37:05;0.10;;;0.10;;
19223;SDS011;9746;47.180;9.776;2023-06-14T10:39:39;0.10;;;0.10;;
19223;SDS011;9746;47.180;9.776;2023-06-14T10:42:08;0.10;;;0.10;;
19223;SDS011;9746;47.180;9.776;2023-06-14T10:44:39;0.10;;;0.10;;
19223;SDS011;9746;47.180;9.776;2023-06-14T10:47:09;0.00;;;0.00;;
19223;SDS011;9746;47.180;9.776;2023-06-14T10:49:49;0.00;;;0.00;;
19223;SDS011;9746;47.180;9.776;2023-06-14T10:52:20;0.10;;;0.10;;
19223;SDS011;9746;47.180;9.776;2023-06-14T11:00:18;0.00;;;0.00;;
19223;SDS011;9746;47.180;9.776;2023-06-14T11:05:58;0.10;;;0.10;;
19223;SDS011;9746;47.180;9.776;2023-06-14T11:11:38;0.00;;;0.00;;
19223;SDS011;9746;47.180;9.776;2023-06-14T11:20:08;0.00;;;0.00;;
19223;SDS011;9746;47.180;9.776;2023-06-14T11:22:41;0.10;;;0.10;;
19223;SDS011;9746;47.180;9.776;2023-06-14T11:27:41;0.00;;;0.00;;
19223;SDS011;9746;47.180;9.776;2023-06-14T11:30:18;0.10;;;0.10;;
19223;SDS011;9746;47.180;9.776;2023-06-14T11:32:46;0.00;;;0.00;;
19223;SDS011;9746;47.180;9.776;2023-06-14T11:35:15;0.10;;;0.10;;
19223;SDS011;9746;47.180;9.776;2023-06-14T11:37:50;0.10;;;0.10;;
19223;SDS011;9746;47.180;9.776;2023-06-14T11:40:23;0.00;;;0.00;;
19223;SDS011;9746;47.180;9.776;2023-06-14T11:42:58;0.00;;;0.00;;
19223;SDS011;9746;47.180;9.776;2023-06-14T11:45:28;0.00;;;0.00;;
19223;SDS011;9746;47.180;9.776;2023-06-14T11:47:58;0.00;;;0.00;;
19223;SDS011;9746;47.180;9.776;2023-06-14T11:50:26;0.00;;;0.00;;
19223;SDS011;9746;47.180;9.776;2023-06-14T11:52:56;0.00;;;0.00;;
19223;SDS011;9746;47.180;9.776;2023-06-14T11:55:31;0.00;;;0.00;;
19223;SDS011;9746;47.180;9.776;2023-06-14T11:58:03;0.00;;;0.00;;
19223;SDS011;9746;47.180;9.776;2023-06-14T12:00:31;0.00;;;0.00;;
19223;SDS011;9746;47.180;9.776;2023-06-14T12:02:59;0.00;;;0.00;;
19223;SDS011;9746;47.180;9.776;2023-06-14T12:05:26;0.00;;;0.00;;
19223;SDS011;9746;47.180;9.776;2023-06-14T12:07:59;0.00;;;0.00;;
19223;SDS011;9746;47.180;9.776;2023-06-14T12:10:29;0.00;;;0.00;;
19223;SDS011;9746;47.180;9.776;2023-06-14T12:13:07;0.00;;;0.00;;
19223;SDS011;9746;47.180;9.776;2023-06-14T12:18:20;0.00;;;0.00;;
19223;SDS011;9746;47.180;9.776;2023-06-14T12:20:58;0.00;;;0.00;;
19223;SDS011;9746;47.180;9.776;2023-06-14T12:23:41;0.00;;;0.00;;
19223;SDS011;9746;47.180;9.776;2023-06-14T12:26:12;0.00;;;0.00;;
19223;SDS011;9746;47.180;9.776;2023-06-14T12:28:41;0.00;;;0.00;;
19223;SDS011;9746;47.180;9.776;2023-06-14T12:31:10;0.00;;;0.00;;
19223;SDS011;9746;47.180;9.776;2023-06-14T12:33:41;0.00;;;0.00;;
19223;SDS011;9746;47.180;9.776;2023-06-14T12:36:10;0.00;;;0.00;;
19223;SDS011;9746;47.180;9.776;2023-06-14T12:38:46;0.00;;;0.00;;
19223;SDS011;9746;47.180;9.776;2023-06-14T12:41:13;0.00;;;0.00;;
19223;SDS011;9746;47.180;9.776;2023-06-14T12:43:42;0.00;;;0.00;;
19223;SDS011;9746;47.180;9.776;2023-06-14T12:46:09;0.00;;;0.00;;
19223;SDS011;9746;47.180;9.776;2023-06-14T12:48:37;0.00;;;0.00;;
19223;SDS011;9746;47.180;9.776;2023-06-14T12:51:04;0.00;;;0.00;;
19223;SDS011;9746;47.180;9.776;2023-06-14T12:53:35;0.00;;;0.00;;
19223;SDS011;9746;47.180;9.776;2023-06-14T12:56:05;0.00;;;0.00;;
19223;SDS011;9746;47.180;9.776;2023-06-14T12:58:32;0.00;;;0.00;;
19223;SDS011;9746;47.180;9.776;2023-06-14T13:00:59;0.00;;;0.00;;
19223;SDS011;9746;47.180;9.776;2023-06-14T13:03:27;0.00;;;0.00;;
19223;SDS011;9746;47.180;9.776;2023-06-14T13:05:54;0.00;;;0.00;;
19223;SDS011;9746;47.180;9.776;2023-06-14T13:08:22;0.00;;;0.00;;
19223;SDS011;9746;47.180;9.776;2023-06-14T13:10:56;0.00;;;0.00;;
19223;SDS011;9746;47.180;9.776;2023-06-14T13:13:25;0.00;;;0.00;;
19223;SDS011;9746;47.180;9.776;2023-06-14T13:15:53;0.00;;;0.00;;
19223;SDS011;9746;47.180;9.776;2023-06-14T13:18:20;0.00;;;0.00;;
19223;SDS011;9746;47.180;9.776;2023-06-14T13:20:48;0.00;;;0.00;;
19223;SDS011;9746;47.180;9.776;2023-06-14T13:23:16;0.00;;;0.00;;
19223;SDS011;9746;47.180;9.776;2023-06-14T13:25:43;0.00;;;0.00;;
19223;SDS011;9746;47.180;9.776;2023-06-14T13:28:15;0.00;;;0.00;;
19223;SDS011;9746;47.180;9.776;2023-06-14T13:30:53;0.00;;;0.00;;
19223;SDS011;9746;47.180;9.776;2023-06-14T13:33:22;0.00;;;0.00;;
19223;SDS011;9746;47.180;9.776;2023-06-14T13:35:51;0.00;;;0.00;;
19223;SDS011;9746;47.180;9.776;2023-06-14T13:38:19;0.00;;;0.00;;
19223;SDS011;9746;47.180;9.776;2023-06-14T13:43:18;0.00;;;0.00;;
19223;SDS011;9746;47.180;9.776;2023-06-14T13:45:51;0.00;;;0.00;;
19223;SDS011;9746;47.180;9.776;2023-06-14T13:48:18;0.00;;;0.00;;
19223;SDS011;9746;47.180;9.776;2023-06-14T13:50:46;0.00;;;0.00;;
19223;SDS011;9746;47.180;9.776;2023-06-14T13:53:13;0.00;;;0.00;;
19223;SDS011;9746;47.180;9.776;2023-06-14T13:55:40;0.00;;;0.00;;
19223;SDS011;9746;47.180;9.776;2023-06-14T13:58:08;0.00;;;0.00;;
19223;SDS011;9746;47.180;9.776;2023-06-14T14:00:49;0.00;;;0.00;;
19223;SDS011;9746;47.180;9.776;2023-06-14T14:03:18;0.00;;;0.00;;
19223;SDS011;9746;47.180;9.776;2023-06-14T14:05:48;0.00;;;0.00;;
19223;SDS011;9746;47.180;9.776;2023-06-14T14:08:16;0.00;;;0.00;;
19223;SDS011;9746;47.180;9.776;2023-06-14T14:10:44;0.00;;;0.00;;
19223;SDS011;9746;47.180;9.776;2023-06-14T14:13:12;0.00;;;0.00;;
19223;SDS011;9746;47.180;9.776;2023-06-14T14:18:13;0.00;;;0.00;;
19223;SDS011;9746;47.180;9.776;2023-06-14T14:20:41;0.00;;;0.00;;
19223;SDS011;9746;47.180;9.776;2023-06-14T14:23:09;0.00;;;0.00;;
19223;SDS011;9746;47.180;9.776;2023-06-14T14:25:40;0.00;;;0.00;;
19223;SDS011;9746;47.180;9.776;2023-06-14T14:28:08;0.00;;;0.00;;
19223;SDS011;9746;47.180;9.776;2023-06-14T14:30:37;0.00;;;0.00;;
19223;SDS011;9746;47.180;9.776;2023-06-14T14:33:05;0.00;;;0.00;;
19223;SDS011;9746;47.180;9.776;2023-06-14T14:35:35;0.00;;;0.00;;
19223;SDS011;9746;47.180;9.776;2023-06-14T14:38:03;0.00;;;0.00;;
19223;SDS011;9746;47.180;9.776;2023-06-14T14:40:38;0.00;;;0.00;;
19223;SDS011;9746;47.180;9.776;2023-06-14T14:43:07;0.00;;;0.00;;
19223;SDS011;9746;47.180;9.776;2023-06-14T14:45:36;0.00;;;0.00;;
19223;SDS011;9746;47.180;9.776;2023-06-14T14:48:05;0.00;;;0.00;;
19223;SDS011;9746;47.180;9.776;2023-06-14T14:50:32;0.00;;;0.00;;
19223;SDS011;9746;47.180;9.776;2023-06-14T14:53:02;0.00;;;0.00;;
19223;SDS011;9746;47.180;9.776;2023-06-14T14:55:29;0.00;;;0.00;;
19223;SDS011;9746;47.180;9.776;2023-06-14T14:57:59;0.00;;;0.00;;
19223;SDS011;9746;47.180;9.776;2023-06-14T15:00:36;0.00;;;0.00;;
19223;SDS011;9746;47.180;9.776;2023-06-14T15:03:04;0.00;;;0.00;;
19223;SDS011;9746;47.180;9.776;2023-06-14T15:05:31;0.00;;;0.00;;
19223;SDS011;9746;47.180;9.776;2023-06-14T15:08:00;0.00;;;0.00;;
19223;SDS011;9746;47.180;9.776;2023-06-14T15:10:37;0.00;;;0.00;;
19223;SDS011;9746;47.180;9.776;2023-06-14T15:13:06;0.00;;;0.00;;
19223;SDS011;9746;47.180;9.776;2023-06-14T15:15:34;0.00;;;0.00;;
19223;SDS011;9746;47.180;9.776;2023-06-14T15:18:03;0.00;;;0.00;;
19223;SDS011;9746;47.180;9.776;2023-06-14T15:20:31;0.00;;;0.00;;
19223;SDS011;9746;47.180;9.776;2023-06-14T15:22:59;0.00;;;0.00;;
19223;SDS011;9746;47.180;9.776;2023-06-14T15:25:29;0.00;;;0.00;;
19223;SDS011;9746;47.180;9.776;2023-06-14T15:27:58;0.00;;;0.00;;
19223;SDS011;9746;47.180;9.776;2023-06-14T15:30:29;0.00;;;0.00;;
19223;SDS011;9746;47.180;9.776;2023-06-14T15:32:57;0.00;;;0.00;;
19223;SDS011;9746;47.180;9.776;2023-06-14T15:35:25;0.00;;;0.00;;
19223;SDS011;9746;47.180;9.776;2023-06-14T15:37:53;0.00;;;0.00;;
19223;SDS011;9746;47.180;9.776;2023-06-14T15:40:26;0.00;;;0.00;;
19223;SDS011;9746;47.180;9.776;2023-06-14T15:42:55;0.00;;;0.00;;
19223;SDS011;9746;47.180;9.776;2023-06-14T15:45:23;0.00;;;0.00;;
19223;SDS011;9746;47.180;9.776;2023-06-14T15:47:51;0.00;;;0.00;;
19223;SDS011;9746;47.180;9.776;2023-06-14T15:50:31;0.00;;;0.00;;
19223;SDS011;9746;47.180;9.776;2023-06-14T15:52:58;0.00;;;0.00;;
19223;SDS011;9746;47.180;9.776;2023-06-14T15:55:27;0.00;;;0.00;;
19223;SDS011;9746;47.180;9.776;2023-06-14T15:57:56;0.00;;;0.00;;
19223;SDS011;9746;47.180;9.776;2023-06-14T16:00:24;0.00;;;0.00;;
19223;SDS011;9746;47.180;9.776;2023-06-14T16:02:52;0.00;;;0.00;;
19223;SDS011;9746;47.180;9.776;2023-06-14T16:05:25;0.00;;;0.00;;
19223;SDS011;9746;47.180;9.776;2023-06-14T16:07:52;0.00;;;0.00;;
19223;SDS011;9746;47.180;9.776;2023-06-14T16:10:20;0.00;;;0.00;;
19223;SDS011;9746;47.180;9.776;2023-06-14T16:12:47;0.00;;;0.00;;
19223;SDS011;9746;47.180;9.776;2023-06-14T16:15:20;0.00;;;0.00;;
19223;SDS011;9746;47.180;9.776;2023-06-14T16:17:48;0.00;;;0.00;;
19223;SDS011;9746;47.180;9.776;2023-06-14T16:22:47;0.00;;;0.00;;
19223;SDS011;9746;47.180;9.776;2023-06-14T16:25:14;0.00;;;0.00;;
19223;SDS011;9746;47.180;9.776;2023-06-14T16:27:42;0.00;;;0.00;;
19223;SDS011;9746;47.180;9.776;2023-06-14T16:30:10;0.00;;;0.00;;
19223;SDS011;9746;47.180;9.776;2023-06-14T16:32:40;0.00;;;0.00;;
19223;SDS011;9746;47.180;9.776;2023-06-14T16:35:07;0.00;;;0.00;;
19223;SDS011;9746;47.180;9.776;2023-06-14T16:37:35;0.00;;;0.00;;
19223;SDS011;9746;47.180;9.776;2023-06-14T16:40:02;0.00;;;0.00;;
19223;SDS011;9746;47.180;9.776;2023-06-14T16:42:31;0.00;;;0.00;;
19223;SDS011;9746;47.180;9.776;2023-06-14T16:44:58;0.00;;;0.00;;
19223;SDS011;9746;47.180;9.776;2023-06-14T16:47:26;0.00;;;0.00;;
19223;SDS011;9746;47.180;9.776;2023-06-14T16:49:59;0.05;;;0.05;;
19223;SDS011;9746;47.180;9.776;2023-06-14T16:52:28;0.00;;;0.00;;
19223;SDS011;9746;47.180;9.776;2023-06-14T16:54:55;0.00;;;0.00;;
19223;SDS011;9746;47.180;9.776;2023-06-14T16:57:23;0.10;;;0.10;;
19223;SDS011;9746;47.180;9.776;2023-06-14T16:59:51;0.10;;;0.10;;
19223;SDS011;9746;47.180;9.776;2023-06-14T17:02:25;0.10;;;0.10;;
19223;SDS011;9746;47.180;9.776;2023-06-14T17:04:53;0.10;;;0.10;;
19223;SDS011;9746;47.180;9.776;2023-06-14T17:07:23;0.10;;;0.10;;
19223;SDS011;9746;47.180;9.776;2023-06-14T17:09:53;0.10;;;0.10;;
19223;SDS011;9746;47.180;9.776;2023-06-14T17:12:21;0.10;;;0.10;;
19223;SDS011;9746;47.180;9.776;2023-06-14T17:14:49;0.10;;;0.10;;
19223;SDS011;9746;47.180;9.776;2023-06-14T17:17:19;0.10;;;0.10;;
19223;SDS011;9746;47.180;9.776;2023-06-14T17:19:56;0.10;;;0.10;;
19223;SDS011;9746;47.180;9.776;2023-06-14T17:22:26;0.10;;;0.10;;
19223;SDS011;9746;47.180;9.776;2023-06-14T17:24:56;0.10;;;0.10;;
19223;SDS011;9746;47.180;9.776;2023-06-14T17:27:27;0.10;;;0.10;;
19223;SDS011;9746;47.180;9.776;2023-06-14T17:29:57;0.10;;;0.10;;
19223;SDS011;9746;47.180;9.776;2023-06-14T17:32:29;0.10;;;0.10;;
19223;SDS011;9746;47.180;9.776;2023-06-14T17:34:59;0.10;;;0.10;;
19223;SDS011;9746;47.180;9.776;2023-06-14T17:37:31;0.10;;;0.10;;
19223;SDS011;9746;47.180;9.776;2023-06-14T17:39:58;0.10;;;0.10;;
19223;SDS011;9746;47.180;9.776;2023-06-14T17:42:27;0.00;;;0.00;;
19223;SDS011;9746;47.180;9.776;2023-06-14T17:44:55;0.10;;;0.10;;
19223;SDS011;9746;47.180;9.776;2023-06-14T17:47:22;0.10;;;0.10;;
19223;SDS011;9746;47.180;9.776;2023-06-14T17:49:50;0.10;;;0.10;;
19223;SDS011;9746;47.180;9.776;2023-06-14T17:52:24;0.10;;;0.10;;
19223;SDS011;9746;47.180;9.776;2023-06-14T17:54:53;0.10;;;0.10;;
19223;SDS011;9746;47.180;9.776;2023-06-14T17:57:22;0.00;;;0.00;;
19223;SDS011;9746;47.180;9.776;2023-06-14T17:59:50;0.10;;;0.10;;
19223;SDS011;9746;47.180;9.776;2023-06-14T18:02:17;0.00;;;0.00;;
19223;SDS011;9746;47.180;9.776;2023-06-14T18:04:45;0.10;;;0.10;;
19223;SDS011;9746;47.180;9.776;2023-06-14T18:07:12;0.10;;;0.10;;
19223;SDS011;9746;47.180;9.776;2023-06-14T18:09:39;0.10;;;0.10;;
19223;SDS011;9746;47.180;9.776;2023-06-14T18:12:09;0.10;;;0.10;;
19223;SDS011;9746;47.180;9.776;2023-06-14T18:14:36;0.10;;;0.10;;
19223;SDS011;9746;47.180;9.776;2023-06-14T18:17:04;0.10;;;0.10;;
19223;SDS011;9746;47.180;9.776;2023-06-14T18:19:32;0.10;;;0.10;;
19223;SDS011;9746;47.180;9.776;2023-06-14T18:21:59;0.10;;;0.10;;
19223;SDS011;9746;47.180;9.776;2023-06-14T18:24:27;0.10;;;0.10;;
19223;SDS011;9746;47.180;9.776;2023-06-14T18:26:58;0.10;;;0.10;;
19223;SDS011;9746;47.180;9.776;2023-06-14T18:29:28;0.10;;;0.10;;
19223;SDS011;9746;47.180;9.776;2023-06-14T18:31:56;0.10;;;0.10;;
19223;SDS011;9746;47.180;9.776;2023-06-14T18:34:24;0.10;;;0.10;;
19223;SDS011;9746;47.180;9.776;2023-06-14T18:36:52;0.10;;;0.10;;
19223;SDS011;9746;47.180;9.776;2023-06-14T18:39:22;0.10;;;0.10;;
19223;SDS011;9746;47.180;9.776;2023-06-14T18:41:51;0.10;;;0.10;;
19223;SDS011;9746;47.180;9.776;2023-06-14T18:44:18;0.10;;;0.10;;
19223;SDS011;9746;47.180;9.776;2023-06-14T18:46:48;0.10;;;0.10;;
19223;SDS011;9746;47.180;9.776;2023-06-14T18:49:18;0.10;;;0.10;;
19223;SDS011;9746;47.180;9.776;2023-06-14T18:51:51;0.10;;;0.10;;
19223;SDS011;9746;47.180;9.776;2023-06-14T18:54:19;0.10;;;0.10;;
19223;SDS011;9746;47.180;9.776;2023-06-14T18:56:49;0.10;;;0.10;;
19223;SDS011;9746;47.180;9.776;2023-06-14T18:59:21;0.10;;;0.10;;
19223;SDS011;9746;47.180;9.776;2023-06-14T19:04:23;0.10;;;0.10;;
19223;SDS011;9746;47.180;9.776;2023-06-14T19:06:59;0.10;;;0.10;;
19223;SDS011;9746;47.180;9.776;2023-06-14T19:09:27;0.10;;;0.10;;
19223;SDS011;9746;47.180;9.776;2023-06-14T19:11:56;0.10;;;0.10;;
19223;SDS011;9746;47.180;9.776;2023-06-14T19:14:24;0.10;;;0.10;;
19223;SDS011;9746;47.180;9.776;2023-06-14T19:16:54;0.10;;;0.10;;
19223;SDS011;9746;47.180;9.776;2023-06-14T19:19:21;0.10;;;0.10;;
19223;SDS011;9746;47.180;9.776;2023-06-14T19:21:52;0.10;;;0.10;;
19223;SDS011;9746;47.180;9.776;2023-06-14T19:24:19;0.10;;;0.10;;
19223;SDS011;9746;47.180;9.776;2023-06-14T19:26:48;0.10;;;0.10;;
19223;SDS011;9746;47.180;9.776;2023-06-14T19:29:15;0.10;;;0.10;;
19223;SDS011;9746;47.180;9.776;2023-06-14T19:31:43;0.10;;;0.10;;
19223;SDS011;9746;47.180;9.776;2023-06-14T19:34:12;0.10;;;0.10;;
19223;SDS011;9746;47.180;9.776;2023-06-14T19:36:39;0.17;;;0.17;;
19223;SDS011;9746;47.180;9.776;2023-06-14T19:39:07;0.10;;;0.10;;
19223;SDS011;9746;47.180;9.776;2023-06-14T19:41:34;0.10;;;0.10;;
19223;SDS011;9746;47.180;9.776;2023-06-14T19:44:02;0.10;;;0.10;;
19223;SDS011;9746;47.180;9.776;2023-06-14T19:46:31;0.10;;;0.10;;
19223;SDS011;9746;47.180;9.776;2023-06-14T19:48:59;0.10;;;0.10;;
19223;SDS011;9746;47.180;9.776;2023-06-14T19:51:31;0.10;;;0.10;;
19223;SDS011;9746;47.180;9.776;2023-06-14T19:53:59;0.10;;;0.10;;
19223;SDS011;9746;47.180;9.776;2023-06-14T19:56:31;0.10;;;0.10;;
19223;SDS011;9746;47.180;9.776;2023-06-14T19:59:02;0.10;;;0.10;;
19223;SDS011;9746;47.180;9.776;2023-06-14T20:01:33;0.10;;;0.10;;
19223;SDS011;9746;47.180;9.776;2023-06-14T20:04:02;0.10;;;0.10;;
19223;SDS011;9746;47.180;9.776;2023-06-14T20:06:31;0.10;;;0.10;;
19223;SDS011;9746;47.180;9.776;2023-06-14T20:08:58;0.10;;;0.10;;
19223;SDS011;9746;47.180;9.776;2023-06-14T20:11:26;0.10;;;0.10;;
19223;SDS011;9746;47.180;9.776;2023-06-14T20:13:53;0.10;;;0.10;;
19223;SDS011;9746;47.180;9.776;2023-06-14T20:16:21;0.20;;;0.20;;
19223;SDS011;9746;47.180;9.776;2023-06-14T20:18:48;0.10;;;0.10;;
19223;SDS011;9746;47.180;9.776;2023-06-14T20:21:16;0.20;;;0.20;;
19223;SDS011;9746;47.180;9.776;2023-06-14T20:23:45;0.10;;;0.10;;
19223;SDS011;9746;47.180;9.776;2023-06-14T20:26:12;0.10;;;0.10;;
19223;SDS011;9746;47.180;9.776;2023-06-14T20:28:39;0.10;;;0.10;;
19223;SDS011;9746;47.180;9.776;2023-06-14T20:31:07;0.10;;;0.10;;
19223;SDS011;9746;47.180;9.776;2023-06-14T20:33:38;0.20;;;0.20;;
19223;SDS011;9746;47.180;9.776;2023-06-14T20:36:05;0.20;;;0.20;;